MSC Alexa — 3FPP6 — position and weather

sailwx.info

Track history (hours):
 
Tides and Currents Weather Stations Pressure Air Temp Water Temp Dewpoint Dewpoint Depression Visibility Wind Speed Wind Dir Waves Ship Positions

MSC Alexa

Last reported at 2017-Jun-26 02:00 UTC. Time now 2017-Jun-26 02:07 UTC.
Position N 01°17' E 103°46'.

Length 243 m; draft 9.3 m.

Type: Ship (hazmat cat A). MMSI: 356904000.

Date/timePositionNaut miles runAvg speedWind from/ knotsBaromVisibWave heightAir tempDewpointWater temp
2017-Jun-26 02:00N 01°17' E 103°46'0 0.0
2017-Jun-26 01:29N 01°17' E 103°46'0 0.0
2017-Jun-26 00:59N 01°17' E 103°46'0 0.0
2017-Jun-26 00:29N 01°17' E 103°46'0 0.0
2017-Jun-25 23:58N 01°17' E 103°46'0 0.0
2017-Jun-25 23:28N 01°17' E 103°46'0 0.1
2017-Jun-25 23:00N 01°16' E 103°45'2 3.4
2017-Jun-25 22:30N 01°15' E 103°46'713.8
2017-Jun-25 22:00N 01°12' E 103°39'5 9.5
2017-Jun-25 21:30N 01°10' E 103°35'5 9.0
2017-Jun-25 20:59N 01°11' E 103°30'0 0.8
2017-Jun-25 20:30N 01°11' E 103°30'1 0.8
2017-Jun-25 19:42N 01°10' E 103°30'1 1.8
2017-Jun-25 19:15N 01°11' E 103°30'1 3.6
2017-Jun-25 19:00N 01°12' E 103°29'0 0.5
2017-Jun-25 18:28N 01°12' E 103°30'0 1.1
2017-Jun-25 18:00N 01°11' E 103°30'4 7.8
2017-Jun-25 17:29N 01°15' E 103°32'3 5.5
2017-Jun-25 17:00N 01°17' E 103°33'5 7.6
2017-Jun-25 16:24N 01°22' E 103°32'0 0.6
2017-Jun-25 16:00N 01°22' E 103°33'0 0.0
2017-Jun-25 15:24N 01°22' E 103°33'0 0.0
2017-Jun-25 15:00N 01°22' E 103°33'0 0.0
2017-Jun-25 14:26N 01°22' E 103°33'0 0.0
2017-Jun-25 13:20N 01°22' E 103°33'0 0.0
2017-Jun-25 12:59N 01°22' E 103°33'0 0.0
2017-Jun-25 12:13N 01°22' E 103°33'0 0.0
2017-Jun-25 11:49N 01°22' E 103°33'0 0.0
2017-Jun-25 11:16N 01°22' E 103°33'0 0.0
2017-Jun-25 10:58N 01°22' E 103°33'0 0.0
2017-Jun-25 10:27N 01°22' E 103°33'0 0.0
2017-Jun-25 10:00N 01°22' E 103°33'0 0.0
2017-Jun-25 09:21N 01°22' E 103°33'0 0.0
2017-Jun-25 08:51N 01°22' E 103°33'0 0.0
2017-Jun-25 08:18N 01°22' E 103°33'0 0.0
2017-Jun-25 07:56N 01°22' E 103°33'0 0.0
2017-Jun-25 07:23N 01°22' E 103°33'0 0.0
2017-Jun-25 06:53N 01°22' E 103°33'0 0.0
2017-Jun-25 06:29N 01°22' E 103°33'0 0.0
2017-Jun-25 05:46N 01°22' E 103°33'0 0.0
2017-Jun-25 05:19N 01°22' E 103°33'0 0.0
2017-Jun-25 04:58N 01°22' E 103°33'0 0.0
2017-Jun-25 04:07N 01°22' E 103°33'0 0.0
2017-Jun-25 03:58N 01°22' E 103°33'0 0.0
2017-Jun-25 03:27N 01°22' E 103°33'0 0.0
2017-Jun-25 02:54N 01°22' E 103°33'0 0.0
2017-Jun-25 02:30N 01°22' E 103°33'0 0.0
2017-Jun-25 02:00N 01°22' E 103°33'0 0.0
2017-Jun-25 01:30N 01°22' E 103°33'0 0.0
2017-Jun-25 00:56N 01°22' E 103°33'0 0.0
2017-Jun-25 00:26N 01°22' E 103°33'0 0.0
2017-Jun-24 23:56N 01°22' E 103°33'0 0.0
2017-Jun-24 23:23N 01°22' E 103°33'0 0.0
2017-Jun-24 22:34N 01°22' E 103°33'0 0.0
2017-Jun-24 22:19N 01°22' E 103°33'0 0.0
2017-Jun-24 21:58N 01°22' E 103°33'0 0.0
2017-Jun-24 21:16N 01°22' E 103°33'0 0.0
2017-Jun-24 20:55N 01°22' E 103°33'0 0.0
2017-Jun-24 20:30N 01°22' E 103°33'0 0.0
2017-Jun-24 20:00N 01°22' E 103°33'0 0.0
2017-Jun-24 19:30N 01°22' E 103°33'0 0.0
2017-Jun-24 18:51N 01°22' E 103°33'0 0.0
2017-Jun-24 18:30N 01°22' E 103°33'0 0.0
2017-Jun-24 17:53N 01°22' E 103°33'0 0.0
2017-Jun-24 17:29N 01°22' E 103°33'0 0.0
2017-Jun-24 16:53N 01°22' E 103°33'0 0.0
2017-Jun-24 16:23N 01°22' E 103°33'0 0.0
2017-Jun-24 15:58N 01°22' E 103°33'0 0.0
2017-Jun-24 15:25N 01°22' E 103°33'0 0.0
2017-Jun-24 14:49N 01°22' E 103°33'0 0.0
2017-Jun-24 13:58N 01°22' E 103°33'0 0.0
2017-Jun-24 13:27N 01°22' E 103°33'0 0.0
2017-Jun-24 12:39N 01°22' E 103°33'0 0.0
2017-Jun-24 12:24N 01°22' E 103°33'0 0.0
2017-Jun-24 12:00N 01°22' E 103°33'0 0.0
2017-Jun-24 11:30N 01°22' E 103°33'0 0.7
2017-Jun-24 11:00N 01°22' E 103°33'4 9.0
2017-Jun-24 10:30N 01°17' E 103°33'2 1.7
2017-Jun-24 09:31N 01°16' E 103°34'0 0.1
2017-Jun-24 09:16N 01°16' E 103°34'0 0.2
2017-Jun-24 09:00N 01°16' E 103°34'0 0.3
2017-Jun-24 08:03N 01°16' E 103°34'0 0.2
2017-Jun-24 08:00N 01°16' E 103°34'0 0.1
2017-Jun-24 07:30N 01°16' E 103°34'0 0.0
2017-Jun-24 06:29N 01°16' E 103°34'0 0.0
2017-Jun-24 05:50N 01°16' E 103°34'0 0.0
2017-Jun-24 05:26N 01°16' E 103°34'0 0.0
2017-Jun-24 04:56N 01°16' E 103°34'0 0.0
2017-Jun-24 04:29N 01°16' E 103°34'0 0.0
2017-Jun-24 03:58N 01°16' E 103°34'0 0.0
2017-Jun-24 03:28N 01°16' E 103°34'0 0.0
2017-Jun-24 02:58N 01°16' E 103°34'0 0.0
2017-Jun-24 02:25N 01°16' E 103°34'0 0.0
2017-Jun-24 01:54N 01°16' E 103°34'0 0.0
2017-Jun-24 01:27N 01°16' E 103°34'0 0.1
2017-Jun-24 00:54N 01°16' E 103°34'0 0.0
2017-Jun-24 00:30N 01°16' E 103°34'0 0.0
2017-Jun-23 23:57N 01°16' E 103°34'0 0.1
2017-Jun-23 23:23N 01°16' E 103°34'0 0.1
2017-Jun-23 22:56N 01°16' E 103°34'0 0.0
2017-Jun-23 22:26N 01°16' E 103°34'0 0.1
2017-Jun-23 21:59N 01°16' E 103°34'0 0.1
2017-Jun-23 21:25N 01°16' E 103°34'0 0.3
2017-Jun-23 20:58N 01°16' E 103°34'0 0.1
2017-Jun-23 20:22N 01°16' E 103°34'0 0.0
2017-Jun-23 19:52N 01°16' E 103°34'0 0.0
2017-Jun-23 19:28N 01°16' E 103°34'0 0.0
2017-Jun-23 18:57N 01°16' E 103°34'0 0.1
2017-Jun-23 18:30N 01°16' E 103°34'0 0.1
2017-Jun-23 18:00N 01°16' E 103°34'0 0.0
2017-Jun-23 17:30N 01°16' E 103°34'0 0.0
2017-Jun-23 16:57N 01°16' E 103°34'0 0.0
2017-Jun-23 16:29N 01°16' E 103°34'0 0.0
2017-Jun-23 15:50N 01°16' E 103°34'0 0.1
2017-Jun-23 15:29N 01°16' E 103°34'0 0.1
2017-Jun-23 14:59N 01°16' E 103°34'0 0.0
2017-Jun-23 13:58N 01°16' E 103°34'0 0.0
2017-Jun-23 13:25N 01°16' E 103°34'0 0.0
2017-Jun-23 12:58N 01°16' E 103°34'0 0.1
2017-Jun-23 12:28N 01°16' E 103°34'0 0.0
2017-Jun-23 11:57N 01°16' E 103°34'0 0.0
2017-Jun-23 11:30N 01°16' E 103°34'0 0.1
2017-Jun-23 11:00N 01°16' E 103°34'0 0.1
2017-Jun-23 10:18N 01°16' E 103°34'0 0.0
2017-Jun-23 09:47N 01°16' E 103°34'0 0.0
2017-Jun-23 09:23N 01°16' E 103°34'0 0.0
2017-Jun-23 08:56N 01°16' E 103°34'0 0.0
2017-Jun-23 08:26N 01°16' E 103°34'0 0.0
2017-Jun-23 07:59N 01°16' E 103°34'0 0.0
2017-Jun-23 07:28N 01°16' E 103°34'0 0.1
2017-Jun-23 05:40N 01°16' E 103°34'0 0.0
2017-Jun-23 05:25N 01°16' E 103°34'0 0.2
2017-Jun-23 05:00N 01°16' E 103°34'0 0.1
2017-Jun-23 04:27N 01°16' E 103°34'0 0.1
2017-Jun-23 04:00N 01°16' E 103°34'0 0.0
2017-Jun-23 03:30N 01°16' E 103°34'0 0.0
2017-Jun-23 03:00N 01°16' E 103°34'0 0.0
2017-Jun-23 02:23N 01°16' E 103°34'0 0.0
2017-Jun-23 01:50N 01°16' E 103°34'0 0.1
2017-Jun-23 01:29N 01°16' E 103°34'0 0.2
2017-Jun-23 00:56N 01°16' E 103°34'0 0.3
2017-Jun-23 00:28N 01°16' E 103°34'0 0.1
2017-Jun-22 23:55N 01°16' E 103°34'0 0.3
2017-Jun-22 23:25N 01°16' E 103°34'0 0.1
2017-Jun-22 22:46N 01°16' E 103°34'0 0.0
2017-Jun-22 22:25N 01°16' E 103°34'0 0.1
2017-Jun-22 21:54N 01°16' E 103°34'0 0.0
2017-Jun-22 21:30N 01°16' E 103°34'0 0.0
2017-Jun-22 20:54N 01°16' E 103°34'0 0.0
2017-Jun-22 20:30N 01°16' E 103°34'0 0.1
2017-Jun-22 19:56N 01°16' E 103°34'0 0.0
2017-Jun-22 19:14N 01°16' E 103°34'3 3.9
2017-Jun-22 18:21N 01°12' E 103°34'513.7
2017-Jun-22 18:00N 01°12' E 103°39'612.7
2017-Jun-22 17:30N 01°08' E 103°44'510.4
2017-Jun-22 17:00N 01°11' E 103°49'5 9.8
2017-Jun-22 16:30N 01°13' E 103°53'710.4
2017-Jun-22 15:50N 01°15' E 103°60'  
2017-Jun-17 07:48N 01°15' E 104°04'515.2
2017-Jun-17 07:30N 01°14' E 103°59'815.6
2017-Jun-17 07:01N 01°12' E 103°52'5 9.6
2017-Jun-17 06:30N 01°13' E 103°47'3 6.6
2017-Jun-17 05:59N 01°16' E 103°46'0 0.0
2017-Jun-17 05:26N 01°16' E 103°46'0 0.0
2017-Jun-17 05:00N 01°16' E 103°46'0 0.0
2017-Jun-17 04:30N 01°16' E 103°46'0 0.0
2017-Jun-17 04:00N 01°16' E 103°46'0 0.0
2017-Jun-17 03:30N 01°16' E 103°46'0 0.0
2017-Jun-17 02:57N 01°16' E 103°46'0 0.0
2017-Jun-17 02:29N 01°16' E 103°46'0 0.0
2017-Jun-17 01:53N 01°16' E 103°46'0 0.0
2017-Jun-17 01:29N 01°16' E 103°46'0 0.0
2017-Jun-17 00:59N 01°16' E 103°46'0 0.0
2017-Jun-17 00:25N 01°16' E 103°46'0 0.0
2017-Jun-16 23:54N 01°16' E 103°46'0 0.0
2017-Jun-16 23:25N 01°16' E 103°46'0 0.0
2017-Jun-16 22:58N 01°16' E 103°46'0 0.0
2017-Jun-16 22:28N 01°16' E 103°46'0 0.0
2017-Jun-16 21:51N 01°16' E 103°46'0 0.0
2017-Jun-16 21:30N 01°16' E 103°46'0 0.0
2017-Jun-16 20:57N 01°16' E 103°46'0 0.0
2017-Jun-16 20:30N 01°16' E 103°46'0 0.0
2017-Jun-16 19:56N 01°16' E 103°46'0 0.0
2017-Jun-16 19:29N 01°16' E 103°46'0 0.0
2017-Jun-16 18:56N 01°16' E 103°46'0 0.0
2017-Jun-16 18:29N 01°16' E 103°46'0 0.0
2017-Jun-16 17:56N 01°16' E 103°46'0 0.0
2017-Jun-16 17:28N 01°16' E 103°46'0 0.0
2017-Jun-16 16:55N 01°16' E 103°46'0 0.0
2017-Jun-16 16:25N 01°16' E 103°46'0 0.0
2017-Jun-16 15:58N 01°16' E 103°46'0 0.0
2017-Jun-16 15:30N 01°16' E 103°46'1 2.7
2017-Jun-16 15:00N 01°15' E 103°46'4 7.4
2017-Jun-16 14:29N 01°12' E 103°49'10 9.8
2017-Jun-16 13:30N 01°15' E 103°58'  
Track history (hours):
 
Tides and Currents Weather Stations Pressure Air Temp Water Temp Dewpoint Dewpoint Depression Visibility Wind Speed Wind Dir Waves Ship Positions

MSC Alexa

Last reported at 2017-Jun-26 02:00 UTC. Time now 2017-Jun-26 02:07 UTC.
Position N 01°17' E 103°46'.

Length 243 m; draft 9.3 m.

Type: Ship (hazmat cat A). MMSI: 356904000.

Date/timePositionNaut miles runAvg speedWind from/ knotsBaromVisibWave heightAir tempDewpointWater temp
2017-Jun-26 02:00N 01°17' E 103°46'0 0.0
2017-Jun-26 01:29N 01°17' E 103°46'0 0.0
2017-Jun-26 00:59N 01°17' E 103°46'0 0.0
2017-Jun-26 00:29N 01°17' E 103°46'0 0.0
2017-Jun-25 23:58N 01°17' E 103°46'0 0.0
2017-Jun-25 23:28N 01°17' E 103°46'0 0.1
2017-Jun-25 23:00N 01°16' E 103°45'2 3.4
2017-Jun-25 22:30N 01°15' E 103°46'713.8
2017-Jun-25 22:00N 01°12' E 103°39'5 9.5
2017-Jun-25 21:30N 01°10' E 103°35'5 9.0
2017-Jun-25 20:59N 01°11' E 103°30'0 0.8
2017-Jun-25 20:30N 01°11' E 103°30'1 0.8
2017-Jun-25 19:42N 01°10' E 103°30'1 1.8
2017-Jun-25 19:15N 01°11' E 103°30'1 3.6
2017-Jun-25 19:00N 01°12' E 103°29'0 0.5
2017-Jun-25 18:28N 01°12' E 103°30'0 1.1
2017-Jun-25 18:00N 01°11' E 103°30'4 7.8
2017-Jun-25 17:29N 01°15' E 103°32'3 5.5
2017-Jun-25 17:00N 01°17' E 103°33'5 7.6
2017-Jun-25 16:24N 01°22' E 103°32'0 0.6
2017-Jun-25 16:00N 01°22' E 103°33'0 0.0
2017-Jun-25 15:24N 01°22' E 103°33'0 0.0
2017-Jun-25 15:00N 01°22' E 103°33'0 0.0
2017-Jun-25 14:26N 01°22' E 103°33'0 0.0
2017-Jun-25 13:20N 01°22' E 103°33'0 0.0
2017-Jun-25 12:59N 01°22' E 103°33'0 0.0
2017-Jun-25 12:13N 01°22' E 103°33'0 0.0
2017-Jun-25 11:49N 01°22' E 103°33'0 0.0
2017-Jun-25 11:16N 01°22' E 103°33'0 0.0
2017-Jun-25 10:58N 01°22' E 103°33'0 0.0
2017-Jun-25 10:27N 01°22' E 103°33'0 0.0
2017-Jun-25 10:00N 01°22' E 103°33'0 0.0
2017-Jun-25 09:21N 01°22' E 103°33'0 0.0
2017-Jun-25 08:51N 01°22' E 103°33'0 0.0
2017-Jun-25 08:18N 01°22' E 103°33'0 0.0
2017-Jun-25 07:56N 01°22' E 103°33'0 0.0
2017-Jun-25 07:23N 01°22' E 103°33'0 0.0
2017-Jun-25 06:53N 01°22' E 103°33'0 0.0
2017-Jun-25 06:29N 01°22' E 103°33'0 0.0
2017-Jun-25 05:46N 01°22' E 103°33'0 0.0
2017-Jun-25 05:19N 01°22' E 103°33'0 0.0
2017-Jun-25 04:58N 01°22' E 103°33'0 0.0
2017-Jun-25 04:07N 01°22' E 103°33'0 0.0
2017-Jun-25 03:58N 01°22' E 103°33'0 0.0
2017-Jun-25 03:27N 01°22' E 103°33'0 0.0
2017-Jun-25 02:54N 01°22' E 103°33'0 0.0
2017-Jun-25 02:30N 01°22' E 103°33'0 0.0
2017-Jun-25 02:00N 01°22' E 103°33'0 0.0
2017-Jun-25 01:30N 01°22' E 103°33'0 0.0
2017-Jun-25 00:56N 01°22' E 103°33'0 0.0
2017-Jun-25 00:26N 01°22' E 103°33'0 0.0
2017-Jun-24 23:56N 01°22' E 103°33'0 0.0
2017-Jun-24 23:23N 01°22' E 103°33'0 0.0
2017-Jun-24 22:34N 01°22' E 103°33'0 0.0
2017-Jun-24 22:19N 01°22' E 103°33'0 0.0
2017-Jun-24 21:58N 01°22' E 103°33'0 0.0
2017-Jun-24 21:16N 01°22' E 103°33'0 0.0
2017-Jun-24 20:55N 01°22' E 103°33'0 0.0
2017-Jun-24 20:30N 01°22' E 103°33'0 0.0
2017-Jun-24 20:00N 01°22' E 103°33'0 0.0
2017-Jun-24 19:30N 01°22' E 103°33'0 0.0
2017-Jun-24 18:51N 01°22' E 103°33'0 0.0
2017-Jun-24 18:30N 01°22' E 103°33'0 0.0
2017-Jun-24 17:53N 01°22' E 103°33'0 0.0
2017-Jun-24 17:29N 01°22' E 103°33'0 0.0
2017-Jun-24 16:53N 01°22' E 103°33'0 0.0
2017-Jun-24 16:23N 01°22' E 103°33'0 0.0
2017-Jun-24 15:58N 01°22' E 103°33'0 0.0
2017-Jun-24 15:25N 01°22' E 103°33'0 0.0
2017-Jun-24 14:49N 01°22' E 103°33'0 0.0
2017-Jun-24 13:58N 01°22' E 103°33'0 0.0
2017-Jun-24 13:27N 01°22' E 103°33'0 0.0
2017-Jun-24 12:39N 01°22' E 103°33'0 0.0
2017-Jun-24 12:24N 01°22' E 103°33'0 0.0
2017-Jun-24 12:00N 01°22' E 103°33'0 0.0
2017-Jun-24 11:30N 01°22' E 103°33'0 0.7
2017-Jun-24 11:00N 01°22' E 103°33'4 9.0
2017-Jun-24 10:30N 01°17' E 103°33'2 1.7
2017-Jun-24 09:31N 01°16' E 103°34'0 0.1
2017-Jun-24 09:16N 01°16' E 103°34'0 0.2
2017-Jun-24 09:00N 01°16' E 103°34'0 0.3
2017-Jun-24 08:03N 01°16' E 103°34'0 0.2
2017-Jun-24 08:00N 01°16' E 103°34'0 0.1
2017-Jun-24 07:30N 01°16' E 103°34'0 0.0
2017-Jun-24 06:29N 01°16' E 103°34'0 0.0
2017-Jun-24 05:50N 01°16' E 103°34'0 0.0
2017-Jun-24 05:26N 01°16' E 103°34'0 0.0
2017-Jun-24 04:56N 01°16' E 103°34'0 0.0
2017-Jun-24 04:29N 01°16' E 103°34'0 0.0
2017-Jun-24 03:58N 01°16' E 103°34'0 0.0
2017-Jun-24 03:28N 01°16' E 103°34'0 0.0
2017-Jun-24 02:58N 01°16' E 103°34'0 0.0
2017-Jun-24 02:25N 01°16' E 103°34'0 0.0
2017-Jun-24 01:54N 01°16' E 103°34'0 0.0
2017-Jun-24 01:27N 01°16' E 103°34'0 0.1
2017-Jun-24 00:54N 01°16' E 103°34'0 0.0
2017-Jun-24 00:30N 01°16' E 103°34'0 0.0
2017-Jun-23 23:57N 01°16' E 103°34'0 0.1
2017-Jun-23 23:23N 01°16' E 103°34'0 0.1
2017-Jun-23 22:56N 01°16' E 103°34'0 0.0
2017-Jun-23 22:26N 01°16' E 103°34'0 0.1
2017-Jun-23 21:59N 01°16' E 103°34'0 0.1
2017-Jun-23 21:25N 01°16' E 103°34'0 0.3
2017-Jun-23 20:58N 01°16' E 103°34'0 0.1
2017-Jun-23 20:22N 01°16' E 103°34'0 0.0
2017-Jun-23 19:52N 01°16' E 103°34'0 0.0
2017-Jun-23 19:28N 01°16' E 103°34'0 0.0
2017-Jun-23 18:57N 01°16' E 103°34'0 0.1
2017-Jun-23 18:30N 01°16' E 103°34'0 0.1
2017-Jun-23 18:00N 01°16' E 103°34'0 0.0
2017-Jun-23 17:30N 01°16' E 103°34'0 0.0
2017-Jun-23 16:57N 01°16' E 103°34'0 0.0
2017-Jun-23 16:29N 01°16' E 103°34'0 0.0
2017-Jun-23 15:50N 01°16' E 103°34'0 0.1
2017-Jun-23 15:29N 01°16' E 103°34'0 0.1
2017-Jun-23 14:59N 01°16' E 103°34'0 0.0
2017-Jun-23 13:58N 01°16' E 103°34'0 0.0
2017-Jun-23 13:25N 01°16' E 103°34'0 0.0
2017-Jun-23 12:58N 01°16' E 103°34'0 0.1
2017-Jun-23 12:28N 01°16' E 103°34'0 0.0
2017-Jun-23 11:57N 01°16' E 103°34'0 0.0
2017-Jun-23 11:30N 01°16' E 103°34'0 0.1
2017-Jun-23 11:00N 01°16' E 103°34'0 0.1
2017-Jun-23 10:18N 01°16' E 103°34'0 0.0
2017-Jun-23 09:47N 01°16' E 103°34'0 0.0
2017-Jun-23 09:23N 01°16' E 103°34'0 0.0
2017-Jun-23 08:56N 01°16' E 103°34'0 0.0
2017-Jun-23 08:26N 01°16' E 103°34'0 0.0
2017-Jun-23 07:59N 01°16' E 103°34'0 0.0
2017-Jun-23 07:28N 01°16' E 103°34'0 0.1
2017-Jun-23 05:40N 01°16' E 103°34'0 0.0
2017-Jun-23 05:25N 01°16' E 103°34'0 0.2
2017-Jun-23 05:00N 01°16' E 103°34'0 0.1
2017-Jun-23 04:27N 01°16' E 103°34'0 0.1
2017-Jun-23 04:00N 01°16' E 103°34'0 0.0
2017-Jun-23 03:30N 01°16' E 103°34'0 0.0
2017-Jun-23 03:00N 01°16' E 103°34'0 0.0
2017-Jun-23 02:23N 01°16' E 103°34'0 0.0
2017-Jun-23 01:50N 01°16' E 103°34'0 0.1
2017-Jun-23 01:29N 01°16' E 103°34'0 0.2
2017-Jun-23 00:56N 01°16' E 103°34'0 0.3
2017-Jun-23 00:28N 01°16' E 103°34'0 0.1
2017-Jun-22 23:55N 01°16' E 103°34'0 0.3
2017-Jun-22 23:25N 01°16' E 103°34'0 0.1
2017-Jun-22 22:46N 01°16' E 103°34'0 0.0
2017-Jun-22 22:25N 01°16' E 103°34'0 0.1
2017-Jun-22 21:54N 01°16' E 103°34'0 0.0
2017-Jun-22 21:30N 01°16' E 103°34'0 0.0
2017-Jun-22 20:54N 01°16' E 103°34'0 0.0
2017-Jun-22 20:30N 01°16' E 103°34'0 0.1
2017-Jun-22 19:56N 01°16' E 103°34'0 0.0
2017-Jun-22 19:14N 01°16' E 103°34'3 3.9
2017-Jun-22 18:21N 01°12' E 103°34'513.7
2017-Jun-22 18:00N 01°12' E 103°39'612.7
2017-Jun-22 17:30N 01°08' E 103°44'510.4
2017-Jun-22 17:00N 01°11' E 103°49'5 9.8
2017-Jun-22 16:30N 01°13' E 103°53'710.4
2017-Jun-22 15:50N 01°15' E 103°60'  
2017-Jun-17 07:48N 01°15' E 104°04'515.2
2017-Jun-17 07:30N 01°14' E 103°59'815.6
2017-Jun-17 07:01N 01°12' E 103°52'5 9.6
2017-Jun-17 06:30N 01°13' E 103°47'3 6.6
2017-Jun-17 05:59N 01°16' E 103°46'0 0.0
2017-Jun-17 05:26N 01°16' E 103°46'0 0.0
2017-Jun-17 05:00N 01°16' E 103°46'0 0.0
2017-Jun-17 04:30N 01°16' E 103°46'0 0.0
2017-Jun-17 04:00N 01°16' E 103°46'0 0.0
2017-Jun-17 03:30N 01°16' E 103°46'0 0.0
2017-Jun-17 02:57N 01°16' E 103°46'0 0.0
2017-Jun-17 02:29N 01°16' E 103°46'0 0.0
2017-Jun-17 01:53N 01°16' E 103°46'0 0.0
2017-Jun-17 01:29N 01°16' E 103°46'0 0.0
2017-Jun-17 00:59N 01°16' E 103°46'0 0.0
2017-Jun-17 00:25N 01°16' E 103°46'0 0.0
2017-Jun-16 23:54N 01°16' E 103°46'0 0.0
2017-Jun-16 23:25N 01°16' E 103°46'0 0.0
2017-Jun-16 22:58N 01°16' E 103°46'0 0.0
2017-Jun-16 22:28N 01°16' E 103°46'0 0.0
2017-Jun-16 21:51N 01°16' E 103°46'0 0.0
2017-Jun-16 21:30N 01°16' E 103°46'0 0.0
2017-Jun-16 20:57N 01°16' E 103°46'0 0.0
2017-Jun-16 20:30N 01°16' E 103°46'0 0.0
2017-Jun-16 19:56N 01°16' E 103°46'0 0.0
2017-Jun-16 19:29N 01°16' E 103°46'0 0.0
2017-Jun-16 18:56N 01°16' E 103°46'0 0.0
2017-Jun-16 18:29N 01°16' E 103°46'0 0.0
2017-Jun-16 17:56N 01°16' E 103°46'0 0.0
2017-Jun-16 17:28N 01°16' E 103°46'0 0.0
2017-Jun-16 16:55N 01°16' E 103°46'0 0.0
2017-Jun-16 16:25N 01°16' E 103°46'0 0.0
2017-Jun-16 15:58N 01°16' E 103°46'0 0.0
2017-Jun-16 15:30N 01°16' E 103°46'1 2.7
2017-Jun-16 15:00N 01°15' E 103°46'4 7.4
2017-Jun-16 14:29N 01°12' E 103°49'10 9.8
2017-Jun-16 13:30N 01°15' E 103°58'  

Dump ship's entire track history